createdAt,value
2018-11-27T00:00:28.130Z,3.30
2018-11-27T00:03:01.638Z,3.30
2018-11-27T00:05:31.161Z,3.30
2018-11-27T00:07:59.742Z,3.30
2018-11-27T00:10:29.487Z,3.40
2018-11-27T00:12:57.985Z,3.40
2018-11-27T00:15:26.489Z,3.30
2018-11-27T00:17:55.003Z,3.30
2018-11-27T00:20:23.494Z,3.30
2018-11-27T00:22:51.925Z,3.30
2018-11-27T00:25:20.448Z,3.30
2018-11-27T00:27:48.964Z,3.30
2018-11-27T00:30:20.246Z,3.30
2018-11-27T00:32:49.792Z,3.30
2018-11-27T00:35:19.430Z,3.20
2018-11-27T00:37:48.105Z,3.20
2018-11-27T00:40:18.728Z,3.20
2018-11-27T00:42:47.676Z,3.30
2018-11-27T00:45:17.244Z,3.30
2018-11-27T00:47:46.756Z,3.20
2018-11-27T00:50:16.217Z,3.20
2018-11-27T00:52:44.847Z,3.20
2018-11-27T00:55:14.419Z,3.30
2018-11-27T00:57:43.823Z,3.20
2018-11-27T01:00:15.702Z,3.20
2018-11-27T01:02:44.226Z,3.20
2018-11-27T01:05:13.698Z,3.20
2018-11-27T01:07:42.500Z,3.20
2018-11-27T01:10:18.132Z,3.20
2018-11-27T01:12:46.610Z,3.10
2018-11-27T01:15:15.758Z,3.10
2018-11-27T01:17:45.550Z,3.10
2018-11-27T01:20:16.243Z,3.10
2018-11-27T01:22:44.754Z,3.10
2018-11-27T01:25:13.469Z,3.10
2018-11-27T01:27:41.955Z,3.10
2018-11-27T01:30:15.541Z,3.10
2018-11-27T01:32:44.100Z,3.10
2018-11-27T01:35:13.778Z,3.10
2018-11-27T01:37:42.275Z,3.10
2018-11-27T01:40:27.648Z,3.10
2018-11-27T01:42:57.021Z,3.10
2018-11-27T01:45:25.750Z,3.10
2018-11-27T01:47:54.260Z,3.10
2018-11-27T01:50:22.734Z,3.10
2018-11-27T01:52:51.288Z,3.00
2018-11-27T01:55:21.662Z,3.10
2018-11-27T01:57:50.246Z,3.00
2018-11-27T02:00:25.414Z,3.00
2018-11-27T02:02:54.710Z,3.00
2018-11-27T02:05:23.759Z,3.00
2018-11-27T02:07:52.294Z,3.00
2018-11-27T02:10:20.778Z,3.00
2018-11-27T02:12:50.435Z,3.00
2018-11-27T02:15:25.972Z,3.10
2018-11-27T02:17:54.507Z,3.10
2018-11-27T02:20:23.002Z,3.10
2018-11-27T02:22:51.670Z,3.10
2018-11-27T02:25:25.086Z,3.10
2018-11-27T02:27:53.629Z,3.10
2018-11-27T02:30:23.143Z,3.10
2018-11-27T02:32:51.641Z,3.10
2018-11-27T02:35:21.346Z,3.10
2018-11-27T02:37:51.710Z,3.10
2018-11-27T02:40:20.193Z,3.00
2018-11-27T02:42:48.691Z,2.90
2018-11-27T02:45:18.520Z,3.00
2018-11-27T02:47:47.568Z,3.00
2018-11-27T02:50:17.534Z,2.90
2018-11-27T02:52:46.025Z,2.90
2018-11-27T02:55:18.473Z,2.90
2018-11-27T02:57:47.012Z,2.90
2018-11-27T03:00:16.577Z,2.90
2018-11-27T03:02:45.135Z,2.90
2018-11-27T03:05:15.943Z,2.90
2018-11-27T03:07:44.496Z,2.90
2018-11-27T03:10:14.166Z,2.90
2018-11-27T03:12:42.689Z,2.90
2018-11-27T03:15:16.991Z,2.90
2018-11-27T03:17:45.489Z,2.80
2018-11-27T03:20:15.102Z,2.80
2018-11-27T03:22:43.625Z,2.90
2018-11-27T03:25:15.904Z,2.80
2018-11-27T03:27:45.217Z,2.90
2018-11-27T03:30:14.804Z,2.80
2018-11-27T03:32:43.458Z,2.90
2018-11-27T03:35:12.955Z,2.90
2018-11-27T03:37:41.479Z,2.90
2018-11-27T03:40:13.557Z,2.90
2018-11-27T03:42:42.024Z,2.90
2018-11-27T03:45:11.840Z,2.90
2018-11-27T03:47:40.489Z,2.80
2018-11-27T03:50:20.088Z,2.80
2018-11-27T03:52:48.596Z,2.80
2018-11-27T03:55:17.027Z,2.80
2018-11-27T03:57:45.529Z,2.80
2018-11-27T04:00:16.077Z,2.80
2018-11-27T04:02:45.487Z,2.80
2018-11-27T04:05:14.339Z,2.80
2018-11-27T04:07:42.809Z,2.80
2018-11-27T04:10:15.599Z,2.80
2018-11-27T04:12:44.069Z,2.80
2018-11-27T04:15:13.077Z,2.90
2018-11-27T04:17:41.665Z,2.90
2018-11-27T04:20:11.051Z,2.90
2018-11-27T04:22:40.006Z,2.90
2018-11-27T04:25:10.087Z,2.90
2018-11-27T04:27:38.586Z,2.90
2018-11-27T04:30:09.656Z,2.90
2018-11-27T04:32:38.218Z,2.90
2018-11-27T04:35:07.439Z,2.90
2018-11-27T04:37:36.081Z,2.90
2018-11-27T04:40:05.173Z,2.90
2018-11-27T04:42:33.663Z,2.90
2018-11-27T04:45:02.140Z,2.90
2018-11-27T04:47:30.609Z,2.90
2018-11-27T04:49:59.027Z,2.80
2018-11-27T04:52:27.469Z,2.90
2018-11-27T04:54:56.031Z,2.90
2018-11-27T04:57:24.489Z,2.90
2018-11-27T04:59:53.017Z,2.90
2018-11-27T05:02:21.555Z,2.80
2018-11-27T05:04:50.008Z,2.90
2018-11-27T05:07:18.511Z,2.90
2018-11-27T05:09:47.027Z,2.90
2018-11-27T05:12:15.587Z,2.90
2018-11-27T05:14:44.081Z,2.80
2018-11-27T05:17:12.523Z,2.80
2018-11-27T05:19:40.955Z,2.80
2018-11-27T05:22:09.477Z,2.80
2018-11-27T05:24:37.866Z,3.60
2018-11-27T05:27:06.396Z,2.80
2018-11-27T05:29:34.942Z,2.80
2018-11-27T05:32:03.456Z,2.70
2018-11-27T05:34:31.829Z,2.70
2018-11-27T05:37:00.262Z,2.80
2018-11-27T05:39:28.661Z,2.70
2018-11-27T05:41:57.089Z,2.70
2018-11-27T05:44:26.223Z,2.80
2018-11-27T05:46:55.167Z,2.70
2018-11-27T05:49:23.617Z,2.70
2018-11-27T05:51:52.074Z,2.70
2018-11-27T05:54:20.516Z,2.70
2018-11-27T05:56:48.974Z,2.80
2018-11-27T05:59:17.448Z,2.80
2018-11-27T06:01:45.938Z,2.80
2018-11-27T06:04:14.391Z,2.80
2018-11-27T06:06:42.838Z,2.80
2018-11-27T06:09:11.309Z,2.80
2018-11-27T06:11:40.083Z,2.70
2018-11-27T06:14:08.565Z,2.70
2018-11-27T06:16:37.026Z,2.70
2018-11-27T06:19:18.847Z,2.70
2018-11-27T06:21:47.307Z,2.80
2018-11-27T06:24:15.750Z,2.70
2018-11-27T06:26:44.240Z,2.80
2018-11-27T06:29:12.713Z,2.80
2018-11-27T06:31:41.758Z,2.70
2018-11-27T06:34:10.204Z,2.80
2018-11-27T06:36:38.777Z,2.70
2018-11-27T06:39:09.068Z,2.70
2018-11-27T06:41:37.547Z,2.70
2018-11-27T06:44:06.441Z,2.70
2018-11-27T06:46:34.965Z,2.60
2018-11-27T06:49:03.448Z,2.60
2018-11-27T06:51:31.922Z,2.70
2018-11-27T06:54:00.379Z,2.70
2018-11-27T06:56:28.896Z,2.60
2018-11-27T06:58:57.358Z,2.70
2018-11-27T07:01:25.811Z,2.70
2018-11-27T07:03:54.261Z,2.70
2018-11-27T07:06:22.734Z,2.70
2018-11-27T07:08:51.227Z,2.70
2018-11-27T07:11:19.670Z,2.70
2018-11-27T07:13:48.126Z,2.70
2018-11-27T07:16:16.584Z,2.70
2018-11-27T07:18:45.086Z,2.70
2018-11-27T07:21:13.535Z,2.70
2018-11-27T07:23:42.002Z,2.80
2018-11-27T07:26:10.552Z,2.70
2018-11-27T07:28:38.995Z,2.80
2018-11-27T07:31:07.616Z,2.80
2018-11-27T07:33:36.058Z,2.80
2018-11-27T07:36:04.548Z,2.80
2018-11-27T07:38:33.044Z,2.80
2018-11-27T07:41:01.499Z,2.80
2018-11-27T07:43:29.980Z,2.90
2018-11-27T07:45:58.430Z,2.90
2018-11-27T07:48:26.879Z,2.90
2018-11-27T07:50:55.345Z,2.90
2018-11-27T07:53:23.810Z,3.00
2018-11-27T07:55:52.278Z,3.00
2018-11-27T07:58:20.757Z,3.10
2018-11-27T08:00:49.246Z,3.10
2018-11-27T08:03:17.692Z,3.10
2018-11-27T08:05:46.178Z,3.10
2018-11-27T08:08:17.106Z,3.10
2018-11-27T08:10:46.704Z,3.10
2018-11-27T08:13:15.194Z,3.20
2018-11-27T08:15:43.712Z,3.10
2018-11-27T08:18:12.552Z,3.20
2018-11-27T08:20:41.159Z,3.20
2018-11-27T08:23:10.727Z,3.20
2018-11-27T08:25:39.184Z,3.20
2018-11-27T08:28:07.859Z,3.30
2018-11-27T08:30:36.464Z,3.30
2018-11-27T08:33:04.941Z,3.30
2018-11-27T08:35:33.392Z,3.30
2018-11-27T08:38:01.872Z,3.30
2018-11-27T08:40:31.727Z,3.40
2018-11-27T08:43:00.147Z,3.30
2018-11-27T08:45:28.566Z,3.30
2018-11-27T08:47:57.069Z,3.40
2018-11-27T08:50:26.492Z,3.30
2018-11-27T08:52:57.111Z,3.30
2018-11-27T08:55:41.611Z,3.20
2018-11-27T08:58:17.454Z,3.30
2018-11-27T09:00:45.954Z,3.20
2018-11-27T09:03:14.393Z,3.20
2018-11-27T09:05:42.945Z,3.20
2018-11-27T09:08:11.459Z,3.30
2018-11-27T09:10:39.974Z,3.30
2018-11-27T09:13:08.462Z,3.40
2018-11-27T09:15:37.264Z,3.40
2018-11-27T09:18:20.057Z,3.40
2018-11-27T09:20:48.547Z,3.50
2018-11-27T09:23:16.992Z,3.50
2018-11-27T09:25:45.511Z,3.50
2018-11-27T09:28:13.984Z,3.50
2018-11-27T09:30:42.541Z,3.60
2018-11-27T09:33:11.042Z,3.40
2018-11-27T09:35:39.596Z,3.40
2018-11-27T09:38:08.578Z,3.40
2018-11-27T09:40:37.367Z,3.40
2018-11-27T09:43:06.377Z,3.40
2018-11-27T09:45:35.187Z,3.40
2018-11-27T09:48:03.675Z,3.40
2018-11-27T09:50:32.205Z,3.50
2018-11-27T09:53:00.778Z,3.50
2018-11-27T09:55:29.243Z,3.50
2018-11-27T09:57:59.296Z,3.60
2018-11-27T10:00:29.843Z,3.70
2018-11-27T10:03:06.289Z,3.70
2018-11-27T10:05:34.970Z,3.70
2018-11-27T10:08:03.672Z,3.70
2018-11-27T10:10:32.202Z,3.60
2018-11-27T10:13:00.651Z,3.60
2018-11-27T10:15:29.685Z,3.60
2018-11-27T10:18:00.409Z,3.60
2018-11-27T10:20:31.365Z,3.50
2018-11-27T10:22:59.738Z,3.60
2018-11-27T10:25:28.086Z,3.60
2018-11-27T10:27:56.523Z,3.70
2018-11-27T10:30:26.184Z,3.70
2018-11-27T10:32:55.882Z,3.70
2018-11-27T10:35:26.480Z,3.70
2018-11-27T10:37:54.940Z,3.80
2018-11-27T10:40:23.518Z,3.70
2018-11-27T10:42:52.035Z,3.80
2018-11-27T10:45:21.580Z,3.80
2018-11-27T10:47:56.901Z,3.80
2018-11-27T10:50:25.346Z,3.70
2018-11-27T10:52:56.532Z,3.70
2018-11-27T10:55:25.040Z,3.80
2018-11-27T10:57:53.576Z,3.90
2018-11-27T11:00:28.395Z,3.90
2018-11-27T11:04:06.290Z,3.90
2018-11-27T11:06:34.848Z,3.90
2018-11-27T11:09:06.600Z,4.00
2018-11-27T11:11:35.554Z,4.10
2018-11-27T11:14:04.039Z,4.10
2018-11-27T11:16:32.480Z,4.30
2018-11-27T11:19:00.983Z,4.40
2018-11-27T11:21:29.443Z,4.30
2018-11-27T11:23:57.909Z,4.40
2018-11-27T11:26:26.433Z,4.40
2018-11-27T11:28:55.050Z,4.40
2018-11-27T11:31:23.514Z,4.60
2018-11-27T11:33:51.978Z,4.50
2018-11-27T11:36:20.613Z,4.50
2018-11-27T11:38:49.226Z,4.60
2018-11-27T11:41:17.693Z,4.50
2018-11-27T11:43:46.253Z,4.60
2018-11-27T11:46:14.773Z,4.60
2018-11-27T11:48:43.287Z,4.50
2018-11-27T11:51:11.779Z,4.50
2018-11-27T11:53:40.238Z,4.50
2018-11-27T11:56:09.402Z,4.50
2018-11-27T11:58:37.902Z,4.60
2018-11-27T12:01:06.636Z,4.70
2018-11-27T12:03:35.112Z,4.80
2018-11-27T12:06:03.590Z,4.90
2018-11-27T12:08:32.065Z,4.90
2018-11-27T12:11:00.525Z,4.80
2018-11-27T12:13:28.982Z,4.90
2018-11-27T12:15:57.421Z,4.90
2018-11-27T12:18:25.987Z,4.90
2018-11-27T12:20:54.491Z,5.00
2018-11-27T12:23:23.076Z,5.20
2018-11-27T12:25:51.727Z,5.20
2018-11-27T12:28:20.332Z,5.20
2018-11-27T12:30:48.825Z,5.20
2018-11-27T12:33:17.351Z,5.30
2018-11-27T12:35:45.831Z,5.30
2018-11-27T12:38:14.305Z,5.30
2018-11-27T12:40:42.766Z,5.40
2018-11-27T12:43:11.247Z,5.20
2018-11-27T12:45:39.705Z,5.10
2018-11-27T12:48:08.179Z,5.30
2018-11-27T12:50:41.930Z,5.30
2018-11-27T12:53:16.515Z,5.30
2018-11-27T12:55:42.645Z,5.40
2018-11-27T12:58:11.089Z,5.40
2018-11-27T13:00:39.556Z,5.50
2018-11-27T13:03:08.106Z,5.40
2018-11-27T13:05:39.572Z,5.20
2018-11-27T13:08:11.391Z,5.10
2018-11-27T13:10:39.881Z,5.20
2018-11-27T13:13:08.384Z,5.00
2018-11-27T13:15:38.179Z,5.10
2018-11-27T13:18:07.802Z,5.10
2018-11-27T13:20:36.275Z,5.10
2018-11-27T13:23:04.807Z,5.10
2018-11-27T13:25:33.414Z,4.80
2018-11-27T13:28:01.891Z,4.80
2018-11-27T13:30:49.946Z,4.80
2018-11-27T13:33:22.222Z,4.90
2018-11-27T13:35:50.816Z,5.00
2018-11-27T13:38:19.261Z,5.00
2018-11-27T13:40:47.723Z,4.90
2018-11-27T13:43:22.624Z,4.90
2018-11-27T13:45:51.149Z,4.90
2018-11-27T13:48:19.672Z,4.80
2018-11-27T13:50:48.177Z,4.80
2018-11-27T13:53:16.661Z,4.90
2018-11-27T13:55:45.160Z,4.90
2018-11-27T13:58:13.785Z,4.80
2018-11-27T14:00:42.326Z,4.80
2018-11-27T14:03:11.037Z,4.80
2018-11-27T14:05:39.445Z,4.90
2018-11-27T14:08:09.011Z,4.80
2018-11-27T14:10:38.485Z,4.70
2018-11-27T14:13:07.953Z,4.70
2018-11-27T14:15:37.031Z,4.50
2018-11-27T14:18:06.015Z,4.60
2018-11-27T14:20:34.520Z,4.60
2018-11-27T14:23:03.037Z,4.50
2018-11-27T14:25:31.604Z,4.50
2018-11-27T14:28:00.077Z,4.40
2018-11-27T14:30:29.585Z,4.40
2018-11-27T14:32:58.214Z,4.40
2018-11-27T14:35:26.715Z,4.40
2018-11-27T14:37:55.611Z,4.40
2018-11-27T14:40:26.189Z,4.30
2018-11-27T14:42:54.775Z,4.20
2018-11-27T14:45:24.613Z,4.10
2018-11-27T14:47:54.326Z,4.00
2018-11-27T14:50:23.195Z,3.90
2018-11-27T14:52:51.704Z,3.90
2018-11-27T14:55:23.487Z,3.80
2018-11-27T14:57:52.067Z,3.70
2018-11-27T15:00:22.073Z,3.70
2018-11-27T15:02:51.154Z,3.60
2018-11-27T15:05:30.521Z,3.50
2018-11-27T15:07:59.114Z,3.60
2018-11-27T15:10:27.594Z,3.60
2018-11-27T15:12:56.250Z,3.50
2018-11-27T15:15:24.774Z,3.40
2018-11-27T15:17:53.344Z,3.30
2018-11-27T15:20:22.790Z,3.30
2018-11-27T15:22:51.298Z,3.30
2018-11-27T15:25:19.968Z,3.30
2018-11-27T15:27:48.706Z,3.20
2018-11-27T15:30:21.305Z,3.20
2018-11-27T15:32:50.592Z,3.10
2018-11-27T15:35:19.103Z,3.10
2018-11-27T15:37:48.388Z,3.10
2018-11-27T15:40:20.448Z,3.10
2018-11-27T15:42:49.070Z,3.10
2018-11-27T15:45:23.676Z,3.00
2018-11-27T15:47:52.209Z,3.00
2018-11-27T15:50:20.722Z,3.00
2018-11-27T15:52:49.222Z,3.00
2018-11-27T15:55:26.053Z,3.00
2018-11-27T15:57:56.064Z,2.90
2018-11-27T16:00:24.613Z,2.90
2018-11-27T16:02:53.340Z,2.90
2018-11-27T16:05:21.812Z,2.90
2018-11-27T16:07:50.284Z,2.90
2018-11-27T16:10:19.544Z,2.80
2018-11-27T16:12:47.964Z,2.80
2018-11-27T16:15:18.000Z,2.90
2018-11-27T16:17:47.147Z,2.90
2018-11-27T16:20:17.701Z,2.80
2018-11-27T16:22:48.163Z,2.90
2018-11-27T16:25:17.804Z,2.90
2018-11-27T16:27:46.911Z,2.90
2018-11-27T16:30:24.274Z,2.90
2018-11-27T16:32:52.933Z,2.90
2018-11-27T16:35:21.674Z,2.90
2018-11-27T16:37:52.140Z,2.80
2018-11-27T16:40:21.842Z,2.80
2018-11-27T16:42:50.541Z,2.80
2018-11-27T16:45:20.984Z,2.70
2018-11-27T16:47:50.294Z,2.70
2018-11-27T16:50:19.186Z,2.70
2018-11-27T16:52:48.289Z,2.70
2018-11-27T16:55:18.802Z,2.70
2018-11-27T16:57:47.404Z,2.70
2018-11-27T17:00:24.284Z,2.60
2018-11-27T17:02:54.860Z,2.60
2018-11-27T17:05:23.454Z,2.70
2018-11-27T17:07:52.070Z,2.70
2018-11-27T17:10:21.379Z,2.60
2018-11-27T17:12:51.528Z,2.70
2018-11-27T17:15:22.041Z,2.60
2018-11-27T17:17:50.555Z,2.70
2018-11-27T17:20:24.180Z,2.70
2018-11-27T17:22:53.305Z,2.60
2018-11-27T17:25:22.080Z,2.60
2018-11-27T17:27:51.142Z,2.60
2018-11-27T17:30:28.621Z,2.60
2018-11-27T17:32:57.780Z,2.60
2018-11-27T17:35:26.921Z,2.60
2018-11-27T17:37:55.634Z,2.60
2018-11-27T17:40:24.231Z,2.60
2018-11-27T17:42:52.670Z,2.60
2018-11-27T17:45:21.210Z,2.60
2018-11-27T17:47:49.645Z,2.60
2018-11-27T17:50:18.350Z,2.60
2018-11-27T17:52:47.799Z,2.70
2018-11-27T17:55:17.391Z,2.60
2018-11-27T17:57:45.868Z,2.60
2018-11-27T18:00:16.331Z,2.60
2018-11-27T18:02:46.809Z,2.50
2018-11-27T18:05:15.327Z,2.50
2018-11-27T18:07:44.070Z,2.40
2018-11-27T18:10:12.738Z,2.40
2018-11-27T18:12:41.229Z,2.40
2018-11-27T18:15:12.408Z,2.40
2018-11-27T18:17:40.941Z,2.50
2018-11-27T18:20:10.628Z,2.50
2018-11-27T18:22:39.141Z,2.50
2018-11-27T18:25:10.339Z,2.40
2018-11-27T18:27:39.181Z,2.40
2018-11-27T18:30:10.393Z,2.40
2018-11-27T18:32:39.059Z,2.40
2018-11-27T18:35:09.297Z,2.30
2018-11-27T18:37:37.749Z,2.30
2018-11-27T18:40:08.099Z,2.30
2018-11-27T18:42:37.027Z,2.30
2018-11-27T18:45:38.756Z,2.30
2018-11-27T18:48:07.265Z,2.30
2018-11-27T18:50:36.287Z,2.30
2018-11-27T18:53:04.869Z,2.40
2018-11-27T18:55:33.493Z,2.30
2018-11-27T18:58:02.446Z,2.40
2018-11-27T19:00:32.423Z,2.40
2018-11-27T19:03:01.015Z,2.40
2018-11-27T19:05:29.577Z,2.30
2018-11-27T19:07:58.551Z,2.30
2018-11-27T19:10:29.839Z,2.30
2018-11-27T19:12:59.855Z,2.40
2018-11-27T19:15:36.319Z,2.30
2018-11-27T19:18:13.097Z,2.30
2018-11-27T19:20:41.701Z,2.20
2018-11-27T19:23:10.058Z,2.20
2018-11-27T19:25:38.596Z,2.20
2018-11-27T19:28:07.874Z,2.20
2018-11-27T19:30:36.392Z,2.10
2018-11-27T19:33:05.210Z,2.20
2018-11-27T19:35:33.778Z,2.20
2018-11-27T19:38:02.479Z,2.20
2018-11-27T19:40:31.002Z,2.20
2018-11-27T19:42:59.471Z,2.10
2018-11-27T19:45:28.353Z,2.10
2018-11-27T19:47:56.837Z,2.10
2018-11-27T19:50:25.522Z,2.10
2018-11-27T19:52:57.039Z,2.10
2018-11-27T19:55:25.554Z,2.10
2018-11-27T19:57:54.303Z,2.10
2018-11-27T20:00:24.800Z,2.10
2018-11-27T20:02:54.334Z,2.10
2018-11-27T20:05:24.124Z,2.10
2018-11-27T20:07:52.868Z,2.10
2018-11-27T20:10:21.353Z,2.20
2018-11-27T20:12:49.852Z,2.10
2018-11-27T20:15:19.495Z,2.10
2018-11-27T20:17:48.737Z,2.10
2018-11-27T20:20:18.394Z,2.10
2018-11-27T20:22:46.887Z,2.10
2018-11-27T20:25:16.726Z,2.10
2018-11-27T20:27:45.250Z,2.00
2018-11-27T20:30:16.146Z,2.10
2018-11-27T20:33:03.048Z,2.10
2018-11-27T20:35:32.284Z,2.00
2018-11-27T20:38:02.316Z,2.00
2018-11-27T20:40:30.876Z,2.00
2018-11-27T20:42:59.379Z,2.00
2018-11-27T20:45:28.137Z,2.00
2018-11-27T20:48:15.338Z,2.00
2018-11-27T20:50:46.386Z,2.00
2018-11-27T20:53:15.414Z,2.00
2018-11-27T20:55:43.957Z,2.00
2018-11-27T20:58:12.603Z,2.00
2018-11-27T21:00:44.308Z,2.00
2018-11-27T21:03:13.246Z,2.00
2018-11-27T21:05:41.731Z,2.00
2018-11-27T21:08:10.361Z,2.00
2018-11-27T21:10:39.323Z,2.00
2018-11-27T21:13:09.252Z,2.00
2018-11-27T21:15:38.653Z,2.00
2018-11-27T21:18:08.006Z,1.90
2018-11-27T21:20:36.671Z,1.90
2018-11-27T21:23:05.294Z,1.90
2018-11-27T21:25:33.903Z,1.90
2018-11-27T21:28:08.300Z,2.00
2018-11-27T21:30:36.975Z,2.00
2018-11-27T21:33:05.790Z,2.00
2018-11-27T21:35:34.649Z,1.90
2018-11-27T21:38:03.538Z,1.90
2018-11-27T21:40:32.264Z,1.90
2018-11-27T21:43:01.037Z,1.90
2018-11-27T21:45:29.718Z,1.90
2018-11-27T21:47:58.958Z,1.90
2018-11-27T21:50:32.919Z,1.80
2018-11-27T21:53:01.850Z,1.80
2018-11-27T21:55:30.399Z,1.80
2018-11-27T21:57:58.873Z,1.80
2018-11-27T22:00:27.771Z,1.70
2018-11-27T22:02:57.128Z,1.70
2018-11-27T22:05:25.749Z,1.70
2018-11-27T22:07:54.247Z,1.80
2018-11-27T22:10:23.642Z,1.70
2018-11-27T22:12:55.378Z,1.70
2018-11-27T22:15:27.392Z,1.70
2018-11-27T22:17:55.836Z,1.70
2018-11-27T22:20:24.314Z,1.70
2018-11-27T22:22:52.800Z,1.70
2018-11-27T22:25:21.270Z,1.70
2018-11-27T22:27:49.754Z,1.60
2018-11-27T22:30:19.156Z,1.60
2018-11-27T22:32:48.725Z,1.80
2018-11-27T22:35:17.326Z,1.60
2018-11-27T22:37:45.862Z,1.70
2018-11-27T22:40:18.434Z,1.60
2018-11-27T22:42:47.304Z,1.60
2018-11-27T22:45:22.022Z,1.60
2018-11-27T22:47:50.582Z,1.70
2018-11-27T22:50:19.461Z,1.70
2018-11-27T22:52:47.970Z,1.70
2018-11-27T22:55:16.527Z,1.70
2018-11-27T22:57:45.013Z,1.70
2018-11-27T23:00:28.758Z,1.70
2018-11-27T23:02:57.381Z,1.70
2018-11-27T23:05:25.943Z,1.70
2018-11-27T23:07:55.019Z,1.70
2018-11-27T23:10:23.665Z,1.70
2018-11-27T23:12:52.302Z,1.60
2018-11-27T23:15:21.706Z,1.60
2018-11-27T23:17:50.402Z,1.60
2018-11-27T23:20:19.489Z,1.60
2018-11-27T23:22:48.308Z,1.60
2018-11-27T23:25:17.882Z,1.70
2018-11-27T23:27:46.479Z,1.60
2018-11-27T23:30:16.080Z,1.70
2018-11-27T23:32:44.669Z,1.60
2018-11-27T23:35:13.291Z,1.60
2018-11-27T23:37:41.832Z,1.60
2018-11-27T23:40:11.359Z,1.60
2018-11-27T23:42:40.121Z,1.60
2018-11-27T23:45:12.765Z,1.60
2018-11-27T23:47:41.264Z,1.60
2018-11-27T23:50:10.992Z,1.60
2018-11-27T23:52:39.469Z,1.60
2018-11-27T23:55:09.098Z,1.60
2018-11-27T23:57:37.954Z,1.60
